AQQ10 IFIS: Internet Flight Information System
logo dgac
Lunes 27 de Septiembre del 2021
Buscar por aerodromo o helipuerto
Ingrese nombre de aeródromo, localidad o designador OACI:
METAR del 27-09-2021 a las 00:00 UTC
Para mayor información visite www.meteochile.cl
METAR SCCY 270000Z 06006KT 010V110 9999 -SHRA BKN033 05/02 Q1019
Viento: dirección 060 grados, velocidad 6 nudos
Viento con dirección variable entre 010 y 110 grados
Visibilidad: 10 km o más
Débil ChubascosLluvia
Nubes: Nublado a 3300 pies sobre el nivel del aeródromo
Temperatura: 5 °C
Rocío: 2 °C
Humedad_relativa: 81%
Presión: 1019 hPa
METAR del 26-09-2021 a las 23:00 UTC
Para mayor información visite www.meteochile.cl
METAR SCCY 262300Z 28003KT 200V340 9999 BKN033 07/00 Q1019
Viento: dirección 280 grados, velocidad 3 nudos
Viento con dirección variable entre 200 y 340 grados
Visibilidad: 10 km o más
Nubes: Nublado a 3300 pies sobre el nivel del aeródromo
Temperatura: 7 °C
Rocío: 0 °C
Humedad_relativa: 61%
Presión: 1019 hPa
METAR del 26-09-2021 a las 22:00 UTC
Para mayor información visite www.meteochile.cl
METAR SCCY 262200Z 28003KT 210V010 9999 SCT033 07/00 Q1019
Viento: dirección 280 grados, velocidad 3 nudos
Viento con dirección variable entre 210 y 010 grados
Visibilidad: 10 km o más
Nubes: Nubosidad parcial a 3300 pies sobre el nivel del aeródromo
Temperatura: 7 °C
Rocío: 0 °C
Humedad_relativa: 61%
Presión: 1019 hPa
METAR del 26-09-2021 a las 21:00 UTC
Para mayor información visite www.meteochile.cl
METAR SCCY 262100Z 25007KT 170V290 9999 SCT033 09/00 Q1019
Viento: dirección 250 grados, velocidad 7 nudos
Viento con dirección variable entre 170 y 290 grados
Visibilidad: 10 km o más
Nubes: Nubosidad parcial a 3300 pies sobre el nivel del aeródromo
Temperatura: 9 °C
Rocío: 0 °C
Humedad_relativa: 53%
Presión: 1019 hPa
METAR del 26-09-2021 a las 20:00 UTC
Para mayor información visite www.meteochile.cl
METAR SCCY 262000Z 24006KT 190V300 9999 VCSH BKN030 08/M00 Q1018
Viento: dirección 240 grados, velocidad 6 nudos
Viento con dirección variable entre 190 y 300 grados
Visibilidad: 10 km o más
En los alrededores, Chubascos
Nubes: Nublado a 3000 pies sobre el nivel del aeródromo
Temperatura: 8 °C
Rocío: -0 °C
Humedad_relativa: 57%
Presión: 1018 hPa
METAR del 26-09-2021 a las 19:00 UTC
Para mayor información visite www.meteochile.cl
METAR SCCY 261900Z 20006KT 150V260 9999 BKN033 08/M00 Q1019
Viento: dirección 200 grados, velocidad 6 nudos
Viento con dirección variable entre 150 y 260 grados
Visibilidad: 10 km o más
Nubes: Nublado a 3300 pies sobre el nivel del aeródromo
Temperatura: 8 °C
Rocío: -0 °C
Humedad_relativa: 57%
Presión: 1019 hPa
METAR del 26-09-2021 a las 18:00 UTC
Para mayor información visite www.meteochile.cl
METAR SCCY 261800Z 30003KT 220V360 9999 BKN030 08/M01 Q1019
Viento: dirección 300 grados, velocidad 3 nudos
Viento con dirección variable entre 220 y 360 grados
Visibilidad: 10 km o más
Nubes: Nublado a 3000 pies sobre el nivel del aeródromo
Temperatura: 8 °C
Rocío: -1 °C
Humedad_relativa: 53%
Presión: 1019 hPa
METAR del 26-09-2021 a las 17:00 UTC
Para mayor información visite www.meteochile.cl
METAR SCCY 261700Z 22005KT 120V290 9999 VCSH BKN033 08/M01 Q1020
Viento: dirección 220 grados, velocidad 5 nudos
Viento con dirección variable entre 120 y 290 grados
Visibilidad: 10 km o más
En los alrededores, Chubascos
Nubes: Nublado a 3300 pies sobre el nivel del aeródromo
Temperatura: 8 °C
Rocío: -1 °C
Humedad_relativa: 53%
Presión: 1020 hPa
METAR del 26-09-2021 a las 16:00 UTC
Para mayor información visite www.meteochile.cl
METAR SCCY 261600Z 23006KT 170V280 9999 VCSH BKN033 07/M03 Q1020
Viento: dirección 230 grados, velocidad 6 nudos
Viento con dirección variable entre 170 y 280 grados
Visibilidad: 10 km o más
En los alrededores, Chubascos
Nubes: Nublado a 3300 pies sobre el nivel del aeródromo
Temperatura: 7 °C
Rocío: -3 °C
Humedad_relativa: 49%
Presión: 1020 hPa
METAR del 26-09-2021 a las 15:00 UTC
Para mayor información visite www.meteochile.cl
METAR SCCY 261500Z 23004KT 170V260 9999 BKN030 08/M01 Q1021
Viento: dirección 230 grados, velocidad 4 nudos
Viento con dirección variable entre 170 y 260 grados
Visibilidad: 10 km o más
Nubes: Nublado a 3000 pies sobre el nivel del aeródromo
Temperatura: 8 °C
Rocío: -1 °C
Humedad_relativa: 53%
Presión: 1021 hPa